Time;durP1;ratioP1;P1;durP2;ratioP2;P2;SDS_P1;SDS_P2;PMS_P1;PMS_P2;Temp;Humidity;BMP_temperature;BMP_pressure;BME280_temperature;BME280_humidity;BME280_pressure;Samples;Min_cycle;Max_cycle;Signal;HPM_P1;HPM_P2
2022/01/17 00:01:09;;;;;;;14.20;2.63;;;;;;;5.91;100.00;102971.84;5092974;28;20036;-53
2022/01/17 00:03:35;;;;;;;16.80;2.38;;;;;;;5.84;100.00;102985.63;5074641;28;20028;-59
2022/01/17 00:06:01;;;;;;;16.30;3.17;;;;;;;6.05;100.00;103038.38;5092750;28;20074;-57
2022/01/17 00:08:26;;;;;;;18.92;2.83;;;;;;;5.89;100.00;103036.31;5092591;28;20059;-53
2022/01/17 00:10:52;;;;;;;16.27;3.20;;;;;;;5.72;100.00;103030.66;5092565;28;20112;-53
2022/01/17 00:13:28;;;;;;;18.35;2.38;;;;;;;5.52;100.00;103019.75;5092887;28;20040;-58
2022/01/17 00:16:05;;;;;;;16.45;2.85;;;;;;;5.17;100.00;102976.25;5092691;28;20036;-58
2022/01/17 00:21:01;;;;;;;;;;;;;;;5.33;100.00;103054.13;5075143;28;20128;-55
2022/01/17 00:23:26;;;;;;;8.45;1.85;;;;;;;5.24;100.00;103056.53;5092023;28;19960;-54
2022/01/17 00:25:52;;;;;;;16.63;2.85;;;;;;;4.71;100.00;102983.81;5092044;28;20321;-51
2022/01/17 00:28:17;;;;;;;12.13;2.50;;;;;;;4.75;100.00;102994.38;5074312;28;20040;-56
2022/01/17 00:30:43;;;;;;;13.73;2.45;;;;;;;5.02;100.00;103054.22;5092305;28;20032;-57
2022/01/17 00:33:08;;;;;;;18.42;3.10;;;;;;;4.58;100.00;102994.78;5092310;28;20111;-56
2022/01/17 00:35:33;;;;;;;15.98;3.03;;;;;;;4.50;100.00;102998.06;5092068;28;20032;-56
2022/01/17 00:37:59;;;;;;;18.20;3.20;;;;;;;4.77;100.00;103041.38;5091872;28;20036;-52
2022/01/17 00:40:25;;;;;;;15.48;3.28;;;;;;;4.80;100.00;103055.38;5091511;28;20032;-53
2022/01/17 00:42:50;;;;;;;14.45;2.80;;;;;;;4.68;100.00;103034.19;5092191;28;20068;-53
2022/01/17 00:45:16;;;;;;;13.93;2.50;;;;;;;4.55;100.00;103019.94;5091714;28;20497;-55
2022/01/17 00:47:42;;;;;;;18.20;3.15;;;;;;;4.06;100.00;102936.00;5092055;28;20043;-55
2022/01/17 00:50:08;;;;;;;17.90;3.00;;;;;;;4.57;100.00;103056.50;5091981;28;20040;-59
2022/01/17 00:52:33;;;;;;;13.85;2.42;;;;;;;4.03;100.00;102958.53;5073985;28;20131;-58
2022/01/17 00:54:59;;;;;;;19.55;3.13;;;;;;;4.48;100.00;103049.31;5092152;28;20115;-53
2022/01/17 00:57:24;;;;;;;20.35;3.30;;;;;;;4.05;100.00;102967.25;5092050;28;20029;-55
2022/01/17 00:59:49;;;;;;;12.68;2.38;;;;;;;4.40;100.00;103027.34;5091890;28;20042;-56
2022/01/17 01:02:15;;;;;;;18.13;2.60;;;;;;;4.46;100.00;103040.56;5073925;28;20463;-53
2022/01/17 01:04:40;;;;;;;12.60;2.45;;;;;;;4.07;100.00;102978.59;5091892;28;20067;-55
2022/01/17 01:07:05;;;;;;;14.52;2.75;;;;;;;4.41;100.00;103036.94;5091818;28;20114;-53
2022/01/17 01:09:37;;;;;;;21.75;2.92;;;;;;;4.33;100.00;103006.28;5092085;28;20025;-55
2022/01/17 01:12:03;;;;;;;15.10;3.45;;;;;;;4.39;100.00;103014.25;5074731;28;20040;-60
2022/01/17 01:14:28;;;;;;;9.73;2.13;;;;;;;3.95;100.00;102956.56;5090696;28;20391;-52
2022/01/17 01:16:56;;;;;;;11.80;2.45;;;;;;;4.41;100.00;103028.22;5092205;28;20040;-54
2022/01/17 01:30:09;;;;;;;11.35;2.20;;;;;;;3.51;100.00;102886.69;5066910;28;20044;-54
2022/01/17 01:32:43;;;;;;;12.48;2.40;;;;;;;4.40;100.00;103052.56;5095123;28;20063;-59
2022/01/17 01:35:11;;;;;;;23.70;3.60;;;;;;;4.37;100.00;103057.69;5095670;28;20032;-52
2022/01/17 01:37:36;;;;;;;14.13;2.42;;;;;;;4.22;100.00;103037.28;5077709;28;20083;-55
2022/01/17 01:40:03;;;;;;;13.98;2.40;;;;;;;4.32;100.00;103057.53;5095359;28;20032;-58
2022/01/17 01:42:31;;;;;;;13.48;2.30;;;;;;;4.33;100.00;103051.47;5095293;28;20111;-56
2022/01/17 01:44:56;;;;;;;19.42;3.08;;;;;;;4.27;100.00;103040.88;5095453;28;20028;-58
2022/01/17 01:47:24;;;;;;;13.30;2.38;;;;;;;3.87;100.00;102967.63;5077269;28;20032;-54
2022/01/17 01:49:49;;;;;;;19.20;2.65;;;;;;;4.33;100.00;103056.69;5095345;28;20035;-57
2022/01/17 01:52:15;;;;;;;16.58;2.30;;;;;;;4.27;100.00;103081.69;5095358;28;20193;-56
2022/01/17 01:54:40;;;;;;;11.68;2.30;;;;;;;4.20;100.00;103069.34;5094925;28;20039;-55
2022/01/17 01:57:06;;;;;;;10.07;2.17;;;;;;;4.16;100.00;103070.97;5094958;28;20032;-54
2022/01/17 01:59:31;;;;;;;16.52;2.60;;;;;;;4.10;100.00;103052.56;5095272;28;20037;-58
2022/01/17 02:01:57;;;;;;;15.98;2.50;;;;;;;4.05;100.00;103064.56;5095146;28;20044;-50
2022/01/17 02:04:22;;;;;;;16.42;3.70;;;;;;;4.02;100.00;103067.09;5095113;28;20036;-55
2022/01/17 02:06:48;;;;;;;14.82;2.75;;;;;;;3.51;100.00;102971.72;5093623;28;20039;-57
2022/01/17 02:09:13;;;;;;;18.13;2.30;;;;;;;4.01;100.00;103067.91;5094812;28;20467;-58
2022/01/17 02:11:39;;;;;;;16.45;2.72;;;;;;;3.46;100.00;102965.50;5076149;28;20128;-59
2022/01/17 02:14:05;;;;;;;15.63;2.47;;;;;;;3.96;100.00;103057.38;5095030;28;20036;-56
2022/01/17 02:16:31;;;;;;;14.32;3.20;;;;;;;4.02;100.00;103040.13;5094612;28;20035;-56
2022/01/17 02:18:56;;;;;;;18.30;3.00;;;;;;;3.54;100.00;102951.88;5076268;28;20036;-60
2022/01/17 02:21:33;;;;;;;12.55;2.70;;;;;;;3.54;100.00;102944.06;5094577;28;20063;-55
2022/01/17 02:24:00;;;;;;;19.02;3.00;;;;;;;3.98;100.00;103014.00;5094558;28;20027;-59
2022/01/17 02:26:26;;;;;;;20.38;3.33;;;;;;;4.09;100.00;103050.78;5094672;28;20031;-54
2022/01/17 02:28:53;;;;;;;15.05;2.33;;;;;;;3.63;100.00;102964.28;5076762;28;20028;-58
2022/01/17 02:31:20;;;;;;;11.27;3.05;;;;;;;4.12;100.00;103022.19;5094543;28;20149;-58
2022/01/17 02:33:45;;;;;;;14.65;3.22;;;;;;;4.22;100.00;103041.59;5093337;28;20043;-54
2022/01/17 02:36:11;;;;;;;13.52;3.28;;;;;;;4.21;100.00;103038.09;5094489;28;20380;-57
2022/01/17 02:38:40;;;;;;;18.02;3.47;;;;;;;4.28;100.00;103041.78;5076219;28;20399;-57
2022/01/17 02:41:06;;;;;;;14.88;3.25;;;;;;;4.16;100.00;103015.34;5076176;28;20112;-57
2022/01/17 02:43:32;;;;;;;17.17;3.72;;;;;;;3.85;100.00;102956.28;5093593;28;20118;-52
2022/01/17 02:48:29;;;;;;;15.55;4.22;;;;;;;3.81;100.00;102968.34;5094255;28;20044;-60
2022/01/17 02:50:56;;;;;;;17.77;3.65;;;;;;;3.85;100.00;102964.09;5094001;28;20043;-57
2022/01/17 02:53:21;;;;;;;15.30;2.92;;;;;;;3.75;100.00;102939.50;5093839;28;20055;-55
2022/01/17 02:56:00;;;;;;;21.08;3.95;;;;;;;4.32;100.00;103043.63;5093897;28;20040;-52
2022/01/17 02:58:27;;;;;;;18.48;3.83;;;;;;;4.17;100.00;103019.75;5093941;28;20471;-55
2022/01/17 03:00:56;;;;;;;17.80;3.30;;;;;;;3.91;100.00;102979.91;5093994;28;20031;-55
2022/01/17 03:03:23;;;;;;;19.83;4.18;;;;;;;4.30;100.00;103054.00;5094324;28;20031;-53
2022/01/17 03:05:49;;;;;;;23.45;4.68;;;;;;;4.31;100.00;103060.09;5093953;28;20077;-57
2022/01/17 03:08:16;;;;;;;10.63;3.63;;;;;;;3.79;100.00;102964.81;5092632;28;20040;-57
2022/01/17 03:10:47;;;;;;;14.50;3.83;;;;;;;4.32;100.00;103046.25;5075513;28;20028;-57
2022/01/17 03:13:15;;;;;;;22.70;4.43;;;;;;;4.44;100.00;103051.78;5093784;28;20031;-58
2022/01/17 03:15:42;;;;;;;17.67;5.20;;;;;;;3.99;100.00;102960.16;5093505;28;20032;-55
2022/01/17 03:18:07;;;;;;;23.63;4.40;;;;;;;4.32;100.00;102999.31;5058573;28;20032;-54
2022/01/17 03:20:34;;;;;;;14.27;3.97;;;;;;;4.59;100.00;103036.56;5093702;28;20034;-55
2022/01/17 03:23:00;;;;;;;15.55;4.88;;;;;;;4.61;100.00;103039.22;5093276;28;20031;-54
2022/01/17 03:25:26;;;;;;;24.80;5.60;;;;;;;4.20;100.00;102957.25;5093226;28;20032;-54
2022/01/17 03:27:51;;;;;;;15.38;5.03;;;;;;;4.42;100.00;102998.72;5075286;28;20032;-55
2022/01/17 03:30:16;;;;;;;23.27;6.30;;;;;;;4.55;100.00;103014.72;5093415;28;20032;-56
2022/01/17 03:32:42;;;;;;;27.23;5.80;;;;;;;4.55;100.00;103013.84;5075324;28;20036;-54
2022/01/17 03:35:07;;;;;;;21.25;6.65;;;;;;;4.62;100.00;103010.53;5093527;28;20040;-57
2022/01/17 03:37:33;;;;;;;22.33;5.70;;;;;;;4.65;100.00;103017.56;5093206;28;20076;-57
2022/01/17 03:39:58;;;;;;;22.85;5.97;;;;;;;4.09;100.00;102923.06;5093055;28;20036;-55
2022/01/17 03:42:24;;;;;;;20.83;7.35;;;;;;;4.67;100.00;103024.59;5093042;28;20043;-56
2022/01/17 03:44:50;;;;;;;22.13;5.95;;;;;;;4.68;100.00;103028.97;5092933;28;20035;-59
2022/01/17 03:47:15;;;;;;;21.38;7.30;;;;;;;4.69;100.00;103030.75;5092933;28;20123;-55
2022/01/17 03:49:41;;;;;;;27.60;7.25;;;;;;;4.65;100.00;103004.53;5074799;28;20135;-59
2022/01/17 03:52:06;;;;;;;19.75;6.78;;;;;;;4.74;100.00;103018.69;5092712;28;20141;-52
2022/01/17 03:54:32;;;;;;;33.90;7.55;;;;;;;4.64;100.00;103000.16;5073866;28;20089;-55
2022/01/17 03:56:58;;;;;;;26.38;7.30;;;;;;;4.71;100.00;103020.34;5092836;28;20028;-57
2022/01/17 03:59:23;;;;;;;24.67;7.22;;;;;;;4.65;100.00;102989.75;5092745;28;20108;-52
2022/01/17 04:01:49;;;;;;;26.48;7.28;;;;;;;4.72;100.00;103033.44;5092614;28;20036;-53
2022/01/17 04:04:14;;;;;;;28.27;7.90;;;;;;;4.30;100.00;102939.28;5092767;28;20035;-55
2022/01/17 04:06:40;;;;;;;23.98;9.32;;;;;;;4.74;100.00;103023.03;5074781;28;20483;-58
2022/01/17 04:09:05;;;;;;;27.55;7.93;;;;;;;4.31;100.00;102959.31;5092827;28;20089;-57
2022/01/17 04:11:30;;;;;;;32.70;8.35;;;;;;;4.67;100.00;103028.94;5092501;28;20406;-62
2022/01/17 04:13:56;;;;;;;26.02;8.82;;;;;;;4.50;100.00;103010.22;5092690;28;20036;-57
2022/01/17 04:16:21;;;;;;;34.38;8.77;;;;;;;4.15;100.00;102951.91;5092356;28;20036;-58
2022/01/17 04:18:46;;;;;;;30.27;8.52;;;;;;;4.61;100.00;103037.50;5092260;28;20039;-53
2022/01/17 04:21:12;;;;;;;26.27;9.25;;;;;;;4.62;100.00;103035.75;5092413;28;20032;-55
2022/01/17 04:23:37;;;;;;;27.67;8.50;;;;;;;4.58;100.00;103057.38;5074333;28;20032;-56
2022/01/17 04:26:03;;;;;;;27.35;10.02;;;;;;;4.09;100.00;102961.28;5074355;28;20028;-54
2022/01/17 04:28:28;;;;;;;31.52;10.00;;;;;;;4.63;100.00;103055.78;5092182;28;20040;-55
2022/01/17 04:30:54;;;;;;;23.23;8.80;;;;;;;4.55;100.00;103042.53;5092176;28;20036;-57
2022/01/17 04:33:19;;;;;;;27.02;9.70;;;;;;;4.54;100.00;103048.59;5074117;28;20569;-55
2022/01/17 04:35:45;;;;;;;30.42;10.00;;;;;;;4.22;100.00;102979.03;5074105;28;20436;-55
2022/01/17 04:38:13;;;;;;;31.00;9.50;;;;;;;4.63;100.00;103069.72;5074190;28;20530;-56
2022/01/17 04:40:40;;;;;;;25.67;9.60;;;;;;;4.21;100.00;102988.56;5092002;28;20039;-53
2022/01/17 04:43:16;;;;;;;28.08;9.98;;;;;;;4.61;100.00;103060.97;5074344;28;20032;-57
2022/01/17 04:45:41;;;;;;;26.77;9.43;;;;;;;4.05;100.00;102962.03;5092444;28;20035;-54
2022/01/17 04:48:07;;;;;;;37.08;10.32;;;;;;;4.52;100.00;103047.69;5092354;28;20024;-54
2022/01/17 04:50:32;;;;;;;29.42;9.70;;;;;;;4.02;100.00;102960.25;5092038;28;20468;-53
2022/01/17 04:53:00;;;;;;;35.22;9.88;;;;;;;4.48;100.00;103053.63;5091888;28;20499;-57
2022/01/17 04:55:26;;;;;;;26.95;9.48;;;;;;;4.44;100.00;103065.69;5074423;28;20081;-53
2022/01/17 04:57:52;;;;;;;30.42;9.38;;;;;;;4.02;100.00;102982.81;5073917;28;20131;-58
2022/01/17 05:00:19;;;;;;;26.52;8.77;;;;;;;4.04;100.00;102971.59;5091855;28;20219;-58
2022/01/17 05:02:45;;;;;;;23.67;9.07;;;;;;;4.53;100.00;103057.25;5074055;28;20043;-56
2022/01/17 05:05:12;;;;;;;28.83;8.68;;;;;;;4.19;100.00;102990.25;5093117;28;20032;-56
2022/01/17 05:07:38;;;;;;;26.38;9.80;;;;;;;4.58;100.00;103058.28;5077849;28;20082;-56
2022/01/17 05:10:07;;;;;;;25.63;8.93;;;;;;;4.16;100.00;102987.56;5096037;28;20032;-54
2022/01/17 05:12:33;;;;;;;26.80;9.13;;;;;;;4.33;100.00;103019.31;5095740;28;20068;-57
2022/01/17 05:14:59;;;;;;;32.55;9.90;;;;;;;4.25;100.00;102997.38;5095927;28;20052;-57
2022/01/17 05:19:59;;;;;;;29.35;13.43;;;;;;;4.50;100.00;103007.59;5095864;28;20040;-59
2022/01/17 05:22:31;;;;;;;30.00;13.43;;;;;;;4.83;100.00;103076.34;5095853;28;20118;-54
2022/01/17 05:24:57;;;;;;;39.95;15.38;;;;;;;4.84;100.00;103072.03;5077835;28;20445;-52
2022/01/17 05:27:23;;;;;;;35.38;16.90;;;;;;;4.87;100.00;103080.81;5095603;28;20055;-55
2022/01/17 05:29:49;;;;;;;42.88;19.50;;;;;;;4.91;100.00;103077.41;5095719;28;20028;-58
2022/01/17 05:32:14;;;;;;;50.80;20.60;;;;;;;4.88;100.00;103072.13;5095803;28;20036;-59
2022/01/17 05:34:40;;;;;;;37.83;21.20;;;;;;;4.97;100.00;103077.59;5077489;28;20085;-54
2022/01/17 05:37:06;;;;;;;44.50;22.45;;;;;;;4.97;100.00;103074.97;5095644;28;20483;-55
2022/01/17 05:39:32;;;;;;;46.80;22.00;;;;;;;5.01;100.00;103065.50;5095491;28;20040;-57
2022/01/17 05:41:58;;;;;;;48.28;22.63;;;;;;;5.06;100.00;103072.59;5095147;28;20137;-55
2022/01/17 05:44:23;;;;;;;46.00;23.75;;;;;;;5.02;100.00;103057.69;5095481;28;20050;-56
2022/01/17 05:46:48;;;;;;;47.42;24.25;;;;;;;4.98;100.00;103057.59;5095396;28;20075;-55
2022/01/17 05:49:14;;;;;;;47.97;25.48;;;;;;;4.92;100.00;103052.22;5077120;28;20032;-54
2022/01/17 05:51:39;;;;;;;55.28;27.63;;;;;;;4.85;100.00;103039.84;5094903;28;20044;-58
2022/01/17 05:54:05;;;;;;;47.08;26.00;;;;;;;4.91;100.00;103058.25;5077015;28;20035;-54
2022/01/17 05:56:30;;;;;;;53.47;26.10;;;;;;;4.78;100.00;103041.44;5095438;28;20360;-54
2022/01/17 05:58:55;;;;;;;57.17;28.40;;;;;;;4.90;100.00;103067.81;5095208;28;20039;-59
2022/01/17 06:01:21;;;;;;;50.97;27.08;;;;;;;4.89;100.00;103083.44;5076850;28;20118;-57
2022/01/17 06:03:46;;;;;;;52.90;26.88;;;;;;;4.85;100.00;103071.16;5094706;28;20024;-55
2022/01/17 06:06:11;;;;;;;57.90;28.50;;;;;;;4.34;100.00;102997.63;5094882;28;20040;-57
2022/01/17 06:08:37;;;;;;;49.75;27.05;;;;;;;4.59;100.00;103051.31;5076613;28;20498;-55
2022/01/17 06:11:03;;;;;;;52.30;26.05;;;;;;;4.62;100.00;103073.16;5094759;28;20028;-55
2022/01/17 06:13:28;;;;;;;52.45;27.48;;;;;;;4.70;100.00;103105.53;5094593;28;20035;-57
2022/01/17 06:15:54;;;;;;;49.47;27.25;;;;;;;4.21;100.00;103014.63;5076658;28;20038;-52
2022/01/17 06:18:19;;;;;;;58.28;27.83;;;;;;;4.18;100.00;103003.22;5075878;28;20074;-52
2022/01/17 06:20:44;;;;;;;52.25;25.60;;;;;;;4.60;100.00;103094.81;5076361;28;20487;-57
2022/01/17 06:23:10;;;;;;;53.10;23.20;;;;;;;4.63;100.00;103100.13;5094619;28;20356;-57
2022/01/17 06:25:35;;;;;;;50.38;25.05;;;;;;;4.58;100.00;103113.06;5094535;28;20067;-51
2022/01/17 06:28:00;;;;;;;56.47;23.98;;;;;;;4.57;100.00;103102.56;5094747;28;20063;-58
2022/01/17 06:30:26;;;;;;;49.72;22.98;;;;;;;4.56;100.00;103114.72;5094366;28;20036;-53
2022/01/17 06:32:51;;;;;;;42.95;22.17;;;;;;;4.54;100.00;103113.78;5076467;28;20062;-53
2022/01/17 06:35:17;;;;;;;40.63;21.67;;;;;;;4.48;100.00;103118.84;5094374;28;20483;-58
2022/01/17 06:37:44;;;;;;;49.35;21.25;;;;;;;4.45;100.00;103113.53;5094822;28;20063;-58
2022/01/17 06:40:10;;;;;;;42.88;17.95;;;;;;;4.41;100.00;103114.25;5094170;28;20035;-57
2022/01/17 06:42:35;;;;;;;37.58;18.52;;;;;;;4.46;100.00;103116.19;5094141;28;20036;-57
2022/01/17 06:45:04;;;;;;;40.20;16.15;;;;;;;3.96;100.00;103017.41;5076200;28;20088;-56
2022/01/17 06:47:30;;;;;;;32.22;13.82;;;;;;;4.41;100.00;103096.91;5094440;28;20036;-53
2022/01/17 06:49:55;;;;;;;30.33;12.75;;;;;;;4.37;100.00;103104.59;5094124;28;20060;-50
2022/01/17 06:52:23;;;;;;;29.75;10.77;;;;;;;3.90;100.00;103031.13;5093911;28;20102;-54
2022/01/17 06:54:48;;;;;;;32.70;10.52;;;;;;;4.25;100.00;103099.91;5093861;28;20039;-59
2022/01/17 06:57:13;;;;;;;28.92;10.27;;;;;;;4.33;100.00;103128.81;5094664;28;20040;-56
2022/01/17 06:59:39;;;;;;;28.52;8.43;;;;;;;3.93;100.00;103070.31;5094386;28;20028;-57
2022/01/17 07:02:04;;;;;;;26.45;8.98;;;;;;;4.15;100.00;103112.63;5093602;28;20478;-52
2022/01/17 07:04:29;;;;;;;26.77;8.05;;;;;;;4.29;100.00;103164.31;5093437;28;20038;-52
2022/01/17 07:06:55;;;;;;;29.92;7.38;;;;;;;4.29;100.00;103168.69;5093442;28;20043;-59
2022/01/17 07:09:21;;;;;;;27.98;7.28;;;;;;;3.76;100.00;103068.91;5075339;28;20044;-53
2022/01/17 07:11:47;;;;;;;29.52;6.85;;;;;;;4.26;100.00;103166.00;5075687;28;20457;-56
2022/01/17 07:14:13;;;;;;;23.88;6.30;;;;;;;4.13;100.00;103149.06;5093585;28;20043;-59
2022/01/17 07:16:39;;;;;;;29.95;7.35;;;;;;;3.71;100.00;103077.38;5075488;28;20518;-55
2022/01/17 07:19:05;;;;;;;27.27;6.88;;;;;;;4.23;100.00;103166.75;5075320;28;20071;-55
2022/01/17 07:21:31;;;;;;;23.88;7.05;;;;;;;3.60;100.00;103039.72;5093407;28;20067;-58
2022/01/17 07:23:56;;;;;;;26.35;6.93;;;;;;;3.91;100.00;103078.91;5093186;28;20114;-53
2022/01/17 07:26:21;;;;;;;32.13;6.63;;;;;;;4.40;100.00;103155.13;5092223;28;20081;-60
2022/01/17 07:28:47;;;;;;;28.38;6.13;;;;;;;4.21;100.00;103103.25;5093346;28;20032;-57
2022/01/17 07:31:12;;;;;;;34.72;7.28;;;;;;;4.15;100.00;103078.72;5093277;28;20039;-55
2022/01/17 07:33:38;;;;;;;26.20;7.05;;;;;;;4.69;100.00;103169.00;5089809;28;20035;-55
2022/01/17 07:36:05;;;;;;;28.45;7.07;;;;;;;4.76;100.00;103176.16;5091486;28;20127;-60
2022/01/17 07:38:31;;;;;;;30.85;6.15;;;;;;;4.86;100.00;103195.56;5091983;28;20036;-56
2022/01/17 07:40:56;;;;;;;24.27;5.88;;;;;;;4.93;100.00;103180.13;5092626;28;20036;-57
2022/01/17 07:43:42;;;;;;;28.02;6.50;;;;;;;5.01;100.00;103196.91;5083489;28;20029;-53
2022/01/17 07:46:18;;;;;;;30.20;7.63;;;;;;;5.06;100.00;103178.75;5072567;28;20085;-58
2022/01/17 07:51:27;;;;;;;20.50;5.82;;;;;;;5.16;100.00;103206.00;5072645;28;20055;-55
2022/01/17 07:53:54;;;;;;;27.00;7.10;;;;;;;4.36;100.00;103051.56;5072875;28;20053;-58
2022/01/17 07:56:20;;;;;;;24.85;6.00;;;;;;;5.22;100.00;103194.00;5072651;28;20028;-55
2022/01/17 07:58:45;;;;;;;28.25;5.95;;;;;;;4.79;100.00;103104.91;5072286;28;20035;-55
2022/01/17 08:01:11;;;;;;;28.15;5.32;;;;;;;5.24;100.00;103183.56;5072324;28;20064;-60
2022/01/17 08:03:36;;;;;;;22.75;5.40;;;;;;;4.86;100.00;103120.78;5054366;28;20044;-53
2022/01/17 08:06:03;;;;;;;29.17;6.10;;;;;;;5.31;100.00;103190.75;5072491;28;20040;-53
2022/01/17 08:08:28;;;;;;;35.22;6.03;;;;;;;5.46;100.00;103207.69;5072425;28;20029;-55
2022/01/17 08:10:53;;;;;;;32.75;6.28;;;;;;;5.50;100.00;103206.03;5072287;28;20043;-59
2022/01/17 08:13:19;;;;;;;33.90;6.32;;;;;;;5.59;100.00;103206.28;5072267;28;20153;-54
2022/01/17 08:15:48;;;;;;;29.13;6.53;;;;;;;4.71;100.00;103052.53;5054099;28;20064;-55
2022/01/17 08:18:14;;;;;;;35.15;6.95;;;;;;;5.20;100.00;103130.38;5071676;28;20036;-59
2022/01/17 08:20:41;;;;;;;28.20;5.45;;;;;;;5.71;100.00;103226.59;5071263;28;20431;-53
2022/01/17 08:23:06;;;;;;;26.58;5.30;;;;;;;5.74;100.00;103239.75;5072191;28;20478;-56
2022/01/17 08:25:32;;;;;;;22.52;5.57;;;;;;;5.28;100.00;103134.09;5053586;28;20024;-57
2022/01/17 08:27:57;;;;;;;28.88;5.60;;;;;;;5.80;100.00;103219.88;5054350;28;20433;-52
2022/01/17 08:30:23;;;;;;;33.92;5.75;;;;;;;5.73;100.00;103201.38;5072581;28;20043;-54
2022/01/17 08:32:50;;;;;;;22.25;5.57;;;;;;;5.78;100.00;103194.56;5071964;28;20025;-52
2022/01/17 08:35:16;;;;;;;22.13;4.25;;;;;;;5.91;100.00;103222.78;5054317;28;20063;-55
2022/01/17 08:37:41;;;;;;;27.55;5.70;;;;;;;5.95;100.00;103215.09;5072096;28;20064;-52
2022/01/17 08:40:08;;;;;;;27.15;4.78;;;;;;;5.81;100.00;103173.75;5071664;28;20125;-48
2022/01/17 08:42:37;;;;;;;25.35;4.18;;;;;;;5.59;100.00;103122.66;5072011;28;20059;-54
2022/01/17 08:45:06;;;;;;;29.33;4.78;;;;;;;6.14;100.00;103208.53;5071926;28;20066;-49
2022/01/17 08:47:32;;;;;;;34.28;6.15;;;;;;;6.14;100.00;103212.03;5071867;28;20032;-53
2022/01/17 08:49:58;;;;;;;25.25;4.82;;;;;;;5.91;100.00;103165.28;5071972;28;20475;-54
2022/01/17 08:52:23;;;;;;;28.60;5.00;;;;;;;6.27;100.00;103217.56;5071742;28;20410;-52
2022/01/17 08:54:49;;;;;;;26.42;5.03;;;;;;;6.27;100.00;103214.94;5071956;28;20032;-57
2022/01/17 08:57:14;;;;;;;33.33;6.10;;;;;;;6.33;100.00;103222.94;5071890;28;20539;-53
2022/01/17 08:59:41;;;;;;;23.60;4.78;;;;;;;5.95;100.00;103165.41;5053675;28;20036;-54
2022/01/17 09:02:06;;;;;;;25.48;5.60;;;;;;;6.47;100.00;103242.44;5071643;28;20383;-51
2022/01/17 09:04:32;;;;;;;34.33;6.45;;;;;;;6.53;100.00;103242.56;5071877;28;20032;-54
2022/01/17 09:06:57;;;;;;;25.90;5.68;;;;;;;6.53;100.00;103229.50;5054053;28;20079;-53
2022/01/17 09:09:23;;;;;;;33.03;5.22;;;;;;;6.26;100.00;103174.81;5071603;28;20400;-54
2022/01/17 09:11:48;;;;;;;33.42;5.55;;;;;;;6.26;100.00;103163.47;5071505;28;20053;-51
2022/01/17 09:14:14;;;;;;;35.92;6.28;;;;;;;6.79;100.00;103255.38;5071601;28;20033;-50
2022/01/17 09:16:39;;;;;;;31.77;5.85;;;;;;;6.79;100.00;103263.25;5071596;28;20055;-54
2022/01/17 09:19:06;;;;;;;29.08;5.07;;;;;;;6.89;100.00;103284.38;5054079;28;20042;-50
2022/01/17 09:21:31;;;;;;;31.83;5.18;;;;;;;6.78;100.00;103252.72;5071567;28;20047;-54
2022/01/17 09:23:58;;;;;;;23.23;4.70;;;;;;;6.12;100.00;103164.06;5071610;28;20399;-54
2022/01/17 09:26:27;;;;;;;35.13;5.68;;;;;;;7.03;100.00;103293.41;5053598;28;20518;-49
2022/01/17 09:28:53;;;;;;;22.83;4.70;;;;;;;6.59;100.00;103216.53;5053430;28;20035;-55
2022/01/17 09:31:19;;;;;;;25.27;5.03;;;;;;;6.59;100.00;103209.59;5071871;28;20040;-54
2022/01/17 09:33:44;;;;;;;27.20;4.60;;;;;;;6.61;100.00;103210.50;5053864;28;20044;-54
2022/01/17 09:36:09;;;;;;;29.90;5.00;;;;;;;7.14;100.00;103282.31;5071529;28;20025;-53
2022/01/17 09:38:35;;;;;;;35.58;5.18;;;;;;;7.12;100.00;103288.38;5053539;28;20336;-51
2022/01/17 09:41:02;;;;;;;24.00;3.65;;;;;;;7.13;100.00;103285.75;5071429;28;20041;-49
2022/01/17 09:43:27;;;;;;;18.58;4.78;;;;;;;7.18;100.00;103283.25;5071832;28;20028;-52
2022/01/17 09:45:52;;;;;;;28.05;4.45;;;;;;;7.22;100.00;103293.81;5071272;28;20464;-48
2022/01/17 09:48:21;;;;;;;26.98;4.78;;;;;;;7.15;100.00;103291.06;5071618;28;20040;-57
2022/01/17 09:51:02;;;;;;;26.45;5.35;;;;;;;7.28;100.00;103307.03;5053914;28;20063;-54
2022/01/17 09:53:28;;;;;;;28.15;4.60;;;;;;;7.23;100.00;103281.59;5073964;28;20052;-53
2022/01/17 09:55:58;;;;;;;24.55;4.45;;;;;;;7.35;100.00;103301.06;5057051;28;20033;-56
2022/01/17 09:58:24;;;;;;;30.20;5.00;;;;;;;7.46;100.00;103317.00;5056791;28;20395;-53
2022/01/17 10:00:49;;;;;;;22.77;4.80;;;;;;;7.28;100.00;103270.38;5056915;28;20066;-52
2022/01/17 10:03:18;;;;;;;26.73;4.60;;;;;;;7.61;100.00;103337.38;5074863;28;20033;-52
2022/01/17 10:05:44;;;;;;;26.25;4.75;;;;;;;7.29;100.00;103264.28;5057315;28;20089;-54
2022/01/17 10:08:13;;;;;;;28.90;5.28;;;;;;;7.65;100.00;103326.09;5074735;28;20040;-54
2022/01/17 10:10:45;;;;;;;25.15;4.75;;;;;;;7.77;100.00;103337.69;5074462;28;20040;-50
2022/01/17 10:13:16;;;;;;;27.60;5.28;;;;;;;7.32;100.00;103260.84;5057136;28;20047;-49
2022/01/17 10:16:07;;;;;;;23.23;4.88;;;;;;;7.82;100.00;103340.44;5074664;28;20028;-54
2022/01/17 10:18:50;;;;;;;21.92;4.30;;;;;;;7.24;100.00;103244.06;5073976;28;20036;-54
2022/01/17 10:21:28;;;;;;;25.35;5.00;;;;;;;7.92;100.00;103342.34;5077519;28;20075;-55
2022/01/17 10:26:48;;;;;;;21.83;4.45;;;;;;;7.87;100.00;103328.28;5080291;28;20059;-54
2022/01/17 10:34:56;;;;;;;25.42;5.00;;;;;;;7.80;100.00;103357.84;5081541;28;20082;-54
2022/01/17 10:37:24;;;;;;;18.67;4.70;;;;;;;7.75;100.00;103341.16;5075769;28;20513;-51
2022/01/17 10:40:03;;;;;;;21.95;4.22;;;;;;;7.85;100.00;103359.69;5088199;28;20036;-51
2022/01/17 10:42:34;;;;;;;23.85;4.05;;;;;;;7.78;100.00;103346.44;5093940;28;20035;-53
2022/01/17 10:45:13;;;;;;;18.05;3.97;;;;;;;7.50;100.00;103281.25;5093923;28;20036;-55
2022/01/17 10:47:43;;;;;;;19.83;3.88;;;;;;;7.97;100.00;103352.94;5094051;28;20035;-53
2022/01/17 10:50:09;;;;;;;35.22;4.75;;;;;;;8.04;100.00;103349.53;5076358;28;20024;-52
2022/01/17 10:52:38;;;;;;;26.75;4.90;;;;;;;7.55;100.00;103270.00;5093782;28;20052;-51
2022/01/17 10:55:12;;;;;;;24.40;4.63;;;;;;;8.17;100.00;103359.41;5076222;28;20043;-50
2022/01/17 10:57:42;;;;;;;27.67;5.32;;;;;;;8.13;100.00;103370.69;5075902;28;20387;-51
2022/01/17 11:00:17;;;;;;;28.83;4.80;;;;;;;8.07;100.00;103374.09;5094296;28;20036;-51
2022/01/17 11:03:01;;;;;;;24.10;4.88;;;;;;;7.99;100.00;103362.59;5093290;28;20379;-54
2022/01/17 11:05:28;;;;;;;23.33;4.57;;;;;;;8.19;100.00;103374.31;5093984;28;20535;-51
2022/01/17 11:07:56;;;;;;;22.60;3.97;;;;;;;8.09;100.00;103364.50;5076144;28;20063;-49
2022/01/17 11:10:21;;;;;;;29.75;5.20;;;;;;;8.24;100.00;103396.28;5093836;28;20088;-55
2022/01/17 11:12:47;;;;;;;26.65;4.78;;;;;;;8.16;100.00;103411.00;5093749;28;20028;-54
2022/01/17 11:15:14;;;;;;;22.35;5.55;;;;;;;8.28;100.00;103398.13;5093674;28;20028;-50
2022/01/17 11:17:47;;;;;;;28.35;4.28;;;;;;;8.27;100.00;103398.97;5093827;28;20047;-51
2022/01/17 11:20:13;;;;;;;28.45;4.43;;;;;;;8.08;100.00;103372.38;5093662;28;20038;-54
2022/01/17 11:22:44;;;;;;;19.92;4.10;;;;;;;7.68;100.00;103306.06;5093608;28;20104;-48
2022/01/17 11:25:13;;;;;;;19.70;5.68;;;;;;;8.18;100.00;103387.41;5058640;28;20420;-52
2022/01/17 11:27:39;;;;;;;24.92;4.38;;;;;;;7.87;100.00;103330.91;5093303;28;20016;-53
2022/01/17 11:30:06;;;;;;;24.02;4.82;;;;;;;8.29;100.00;103391.16;5093587;28;20491;-51
2022/01/17 11:32:31;;;;;;;26.02;4.60;;;;;;;8.06;100.00;103363.56;5093447;28;20479;-53
2022/01/17 11:34:58;;;;;;;21.17;4.10;;;;;;;8.22;100.00;103408.50;5093276;28;20028;-53
2022/01/17 11:37:25;;;;;;;24.45;5.30;;;;;;;8.09;100.00;103376.72;5093236;28;20031;-53
2022/01/17 11:39:55;;;;;;;24.92;4.63;;;;;;;8.04;100.00;103388.91;5093403;28;20044;-53
2022/01/17 11:42:32;;;;;;;25.65;4.75;;;;;;;8.09;100.00;103398.63;5092984;28;20043;-51
2022/01/17 11:44:58;;;;;;;21.52;5.32;;;;;;;8.19;100.00;103391.81;5093220;28;20059;-53